createdAt,value
2022-10-11T00:00:39.434Z,9.35
2022-10-11T00:03:07.113Z,10.15
2022-10-11T00:05:35.741Z,10.40
2022-10-11T00:08:05.612Z,10.98
2022-10-11T00:10:35.373Z,11.35
2022-10-11T00:13:03.179Z,9.68
2022-10-11T00:15:31.199Z,11.48
2022-10-11T00:18:02.118Z,11.10
2022-10-11T00:20:34.165Z,10.23
2022-10-11T00:23:01.348Z,12.63
2022-10-11T00:25:34.011Z,11.82
2022-10-11T00:28:03.589Z,10.60
2022-10-11T00:30:31.575Z,13.10
2022-10-11T00:32:58.840Z,12.60
2022-10-11T00:35:26.748Z,11.48
2022-10-11T00:37:56.945Z,11.57
2022-10-11T00:40:26.518Z,12.60
2022-10-11T00:42:53.656Z,12.48
2022-10-11T00:45:26.851Z,10.88
2022-10-11T00:47:55.402Z,14.00
2022-10-11T00:50:28.110Z,10.50
2022-10-11T00:53:01.757Z,11.32
2022-10-11T00:55:33.735Z,11.43
2022-10-11T00:58:01.082Z,12.32
2022-10-11T01:00:28.257Z,12.30
2022-10-11T01:02:55.773Z,12.48
2022-10-11T01:05:29.708Z,11.32
2022-10-11T01:08:02.282Z,12.95
2022-10-11T01:10:29.884Z,12.80
2022-10-11T01:13:40.757Z,12.75
2022-10-11T01:16:35.463Z,13.18
2022-10-11T01:19:33.422Z,12.13
2022-10-11T01:22:33.850Z,13.45
2022-10-11T01:25:31.002Z,14.35
2022-10-11T01:28:23.020Z,12.40
2022-10-11T01:30:51.685Z,12.68
2022-10-11T01:33:22.888Z,13.65
2022-10-11T01:36:27.946Z,12.43
2022-10-11T01:39:36.813Z,12.48
2022-10-11T01:42:09.930Z,13.10
2022-10-11T01:44:39.160Z,12.90
2022-10-11T01:47:08.645Z,12.85
2022-10-11T01:49:35.913Z,11.73
2022-10-11T01:52:06.998Z,11.90
2022-10-11T01:55:10.642Z,11.68
2022-10-11T01:58:04.350Z,11.70
2022-10-11T02:00:51.850Z,10.43
2022-10-11T02:03:24.629Z,10.20
2022-10-11T02:06:04.419Z,11.00
2022-10-11T02:08:53.074Z,11.30
2022-10-11T02:11:44.445Z,10.80
2022-10-11T02:14:27.323Z,10.57
2022-10-11T02:17:12.198Z,10.20
2022-10-11T02:19:46.059Z,10.10
2022-10-11T02:22:27.984Z,10.60
2022-10-11T02:25:02.180Z,10.30
2022-10-11T02:27:33.506Z,10.70
2022-10-11T02:30:04.477Z,10.75
2022-10-11T02:32:33.642Z,10.60
2022-10-11T02:35:02.623Z,9.95
2022-10-11T02:37:54.006Z,9.18
2022-10-11T02:40:35.313Z,9.57
2022-10-11T02:43:28.555Z,9.57
2022-10-11T02:46:03.396Z,9.10
2022-10-11T02:48:32.374Z,9.52
2022-10-11T02:51:02.428Z,9.52
2022-10-11T02:53:30.023Z,9.38
2022-10-11T02:55:57.512Z,9.70
2022-10-11T02:58:25.553Z,8.95
2022-10-11T03:00:52.809Z,10.43
2022-10-11T03:03:20.150Z,9.98
2022-10-11T03:05:47.323Z,9.60
2022-10-11T03:08:16.414Z,9.05
2022-10-11T03:10:44.185Z,8.90
2022-10-11T03:13:15.975Z,9.10
2022-10-11T03:16:01.925Z,8.60
2022-10-11T03:18:35.283Z,9.27
2022-10-11T03:23:29.400Z,8.98
2022-10-11T03:25:56.742Z,8.68
2022-10-11T03:28:26.050Z,9.65
2022-10-11T03:30:53.497Z,10.07
2022-10-11T03:33:20.639Z,8.88
2022-10-11T03:35:51.080Z,8.77
2022-10-11T03:38:22.606Z,9.07
2022-10-11T03:40:51.928Z,8.52
2022-10-11T03:43:19.214Z,9.18
2022-10-11T03:45:46.725Z,8.57
2022-10-11T03:48:13.905Z,9.10
2022-10-11T03:50:43.789Z,8.75
2022-10-11T03:53:13.423Z,8.85
2022-10-11T03:55:41.464Z,8.48
2022-10-11T03:58:09.309Z,8.50
2022-10-11T04:00:37.536Z,8.27
2022-10-11T04:03:04.813Z,7.57
2022-10-11T04:05:32.272Z,7.25
2022-10-11T04:07:59.662Z,7.38
2022-10-11T04:10:26.867Z,7.63
2022-10-11T04:12:56.518Z,7.57
2022-10-11T04:15:23.814Z,7.93
2022-10-11T04:17:50.908Z,7.15
2022-10-11T04:20:18.064Z,7.75
2022-10-11T04:22:45.176Z,6.18
2022-10-11T04:25:12.240Z,7.88
2022-10-11T04:27:39.666Z,6.97
2022-10-11T04:30:08.094Z,7.00
2022-10-11T04:32:37.630Z,6.82
2022-10-11T04:35:05.509Z,6.57
2022-10-11T04:37:35.921Z,6.90
2022-10-11T04:40:04.324Z,7.30
2022-10-11T04:42:31.472Z,6.32
2022-10-11T04:45:01.132Z,6.95
2022-10-11T04:47:28.283Z,6.68
2022-10-11T04:49:57.757Z,6.90
2022-10-11T04:52:26.033Z,6.25
2022-10-11T04:54:53.360Z,7.75
2022-10-11T04:57:21.971Z,7.50
2022-10-11T04:59:50.319Z,6.97
2022-10-11T05:02:17.968Z,6.40
2022-10-11T05:04:45.235Z,6.80
2022-10-11T05:07:12.452Z,7.38
2022-10-11T05:09:39.546Z,7.65
2022-10-11T05:12:06.801Z,7.10
2022-10-11T05:14:34.416Z,7.43
2022-10-11T05:17:01.500Z,7.90
2022-10-11T05:19:28.793Z,7.32
2022-10-11T05:21:56.072Z,7.40
2022-10-11T05:24:23.917Z,6.93
2022-10-11T05:26:51.583Z,6.22
2022-10-11T05:29:18.712Z,6.47
2022-10-11T05:31:46.081Z,6.70
2022-10-11T05:34:13.124Z,6.45
2022-10-11T05:36:40.249Z,6.43
2022-10-11T05:39:07.383Z,6.18
2022-10-11T05:41:34.489Z,6.50
2022-10-11T05:44:01.576Z,6.45
2022-10-11T05:46:28.896Z,6.50
2022-10-11T05:48:58.233Z,6.10
2022-10-11T05:51:25.330Z,6.80
2022-10-11T05:53:52.778Z,6.72
2022-10-11T05:56:26.602Z,6.70
2022-10-11T05:58:57.510Z,6.85
2022-10-11T06:01:28.220Z,6.38
2022-10-11T06:03:57.831Z,6.00
2022-10-11T06:06:24.998Z,6.30
2022-10-11T06:08:52.345Z,6.25
2022-10-11T06:11:29.112Z,7.63
2022-10-11T06:13:58.286Z,7.32
2022-10-11T06:16:25.989Z,6.78
2022-10-11T06:18:55.221Z,7.30
2022-10-11T06:21:23.338Z,7.18
2022-10-11T06:24:01.920Z,7.25
2022-10-11T06:26:30.108Z,5.57
2022-10-11T06:28:57.605Z,6.43
2022-10-11T06:31:25.075Z,5.05
2022-10-11T06:33:52.297Z,4.75
2022-10-11T06:36:19.731Z,4.32
2022-10-11T06:38:46.978Z,3.63
2022-10-11T06:41:21.068Z,3.00
2022-10-11T06:43:49.864Z,3.08
2022-10-11T06:46:19.600Z,3.00
2022-10-11T06:48:48.468Z,2.75
2022-10-11T06:51:19.966Z,3.08
2022-10-11T06:53:58.311Z,3.20
2022-10-11T06:56:31.096Z,3.53
2022-10-11T06:58:59.741Z,3.35
2022-10-11T07:01:27.636Z,3.60
2022-10-11T07:03:57.698Z,3.58
2022-10-11T07:06:28.326Z,3.35
2022-10-11T07:08:55.781Z,3.20
2022-10-11T07:11:27.350Z,3.03
2022-10-11T07:13:58.157Z,2.95
2022-10-11T07:16:26.325Z,3.50
2022-10-11T07:19:00.482Z,3.63
2022-10-11T07:21:30.324Z,3.13
2022-10-11T07:23:57.717Z,3.15
2022-10-11T07:26:27.524Z,3.22
2022-10-11T07:28:54.760Z,3.38
2022-10-11T07:31:25.518Z,2.70
2022-10-11T07:33:52.877Z,2.83
2022-10-11T07:36:23.307Z,2.67
2022-10-11T07:38:50.723Z,2.72
2022-10-11T07:41:18.237Z,3.42
2022-10-11T07:43:47.819Z,2.38
2022-10-11T07:46:16.108Z,2.95
2022-10-11T07:48:43.216Z,2.50
2022-10-11T07:51:15.781Z,2.72
2022-10-11T07:53:55.755Z,2.53
2022-10-11T07:56:28.682Z,3.45
2022-10-11T07:59:01.667Z,2.63
2022-10-11T08:01:31.994Z,2.53
2022-10-11T08:03:59.861Z,2.40
2022-10-11T08:06:33.654Z,2.42
2022-10-11T08:09:01.757Z,2.63
2022-10-11T08:11:36.430Z,2.47
2022-10-11T08:14:08.693Z,2.78
2022-10-11T08:16:38.998Z,2.88
2022-10-11T08:19:07.432Z,2.92
2022-10-11T08:21:34.921Z,3.13
2022-10-11T08:24:06.999Z,2.28
2022-10-11T08:26:37.472Z,2.63
2022-10-11T08:29:05.341Z,3.00
2022-10-11T08:31:34.590Z,2.75
2022-10-11T08:34:01.704Z,3.08
2022-10-11T08:36:28.744Z,2.40
2022-10-11T08:38:55.815Z,2.92
2022-10-11T08:41:49.950Z,2.85
2022-10-11T08:47:33.366Z,2.47
2022-10-11T08:50:01.182Z,2.17
2022-10-11T08:52:46.813Z,3.08
2022-10-11T08:55:15.386Z,2.75
2022-10-11T08:57:53.263Z,2.33
2022-10-11T09:00:21.726Z,2.22
2022-10-11T09:03:09.355Z,2.33
2022-10-11T09:06:01.040Z,2.40
2022-10-11T09:08:44.431Z,2.60
2022-10-11T09:11:39.773Z,2.15
2022-10-11T09:14:43.669Z,2.80
2022-10-11T09:17:46.814Z,2.55
2022-10-11T09:20:52.401Z,2.70
2022-10-11T09:23:43.470Z,2.15
2022-10-11T09:26:31.909Z,2.60
2022-10-11T09:29:18.164Z,2.75
2022-10-11T09:31:55.011Z,2.40
2022-10-11T09:34:26.868Z,2.17
2022-10-11T09:40:08.464Z,2.15
2022-10-11T09:42:38.067Z,2.75
2022-10-11T09:45:21.479Z,2.25
2022-10-11T09:47:54.859Z,2.50
2022-10-11T09:50:30.674Z,1.92
2022-10-11T09:53:04.891Z,2.38
2022-10-11T09:55:45.251Z,2.22
2022-10-11T09:58:35.489Z,2.30
2022-10-11T10:01:10.146Z,1.90
2022-10-11T10:03:42.988Z,2.33
2022-10-11T10:06:33.638Z,2.88
2022-10-11T10:09:30.522Z,2.35
2022-10-11T10:11:58.126Z,2.38
2022-10-11T10:14:30.031Z,2.10
2022-10-11T10:17:08.706Z,1.50
2022-10-11T10:20:05.516Z,3.30
2022-10-11T10:22:35.763Z,2.08
2022-10-11T10:25:08.146Z,2.17
2022-10-11T10:27:35.701Z,2.45
2022-10-11T10:30:15.951Z,2.17
2022-10-11T10:33:05.880Z,2.10
2022-10-11T10:35:49.328Z,2.40
2022-10-11T10:38:41.359Z,2.05
2022-10-11T10:43:43.752Z,1.70
2022-10-11T10:46:39.660Z,2.35
2022-10-11T10:49:53.056Z,2.17
2022-10-11T10:52:49.463Z,2.17
2022-10-11T10:55:42.271Z,2.00
2022-10-11T10:58:27.245Z,1.85
2022-10-11T11:01:48.875Z,1.95
2022-10-11T11:04:33.557Z,2.10
2022-10-11T11:07:36.666Z,2.13
2022-10-11T11:10:48.426Z,2.20
2022-10-11T11:13:22.701Z,2.10
2022-10-11T11:15:50.416Z,1.83
2022-10-11T11:18:30.352Z,1.58
2022-10-11T11:21:26.812Z,1.90
2022-10-11T11:24:29.755Z,2.20
2022-10-11T11:27:02.878Z,1.80
2022-10-11T11:29:53.148Z,2.08
2022-10-11T11:33:02.442Z,2.40
2022-10-11T11:35:44.050Z,2.20
2022-10-11T11:38:37.516Z,2.25
2022-10-11T11:41:11.591Z,2.22
2022-10-11T11:43:46.118Z,1.95
2022-10-11T11:46:27.709Z,2.10
2022-10-11T11:49:02.895Z,2.00
2022-10-11T11:51:41.553Z,2.00
2022-10-11T11:54:37.233Z,1.92
2022-10-11T11:57:41.572Z,3.63
2022-10-11T12:00:23.498Z,2.15
2022-10-11T12:05:37.609Z,2.22
2022-10-11T12:08:25.448Z,2.38
2022-10-11T12:11:02.453Z,1.80
2022-10-11T12:13:37.645Z,1.77
2022-10-11T12:16:04.668Z,1.58
2022-10-11T12:18:38.146Z,1.83
2022-10-11T12:21:44.386Z,2.20
2022-10-11T12:24:15.389Z,1.83
2022-10-11T12:26:45.506Z,2.08
2022-10-11T12:29:18.964Z,2.20
2022-10-11T12:32:00.225Z,2.17
2022-10-11T12:34:44.964Z,2.15
2022-10-11T12:37:18.128Z,2.00
2022-10-11T12:40:00.459Z,1.65
2022-10-11T12:42:36.574Z,2.75
2022-10-11T12:45:13.212Z,2.10
2022-10-11T12:48:00.979Z,1.73
2022-10-11T12:51:26.321Z,1.85
2022-10-11T12:55:14.114Z,2.10
2022-10-11T12:58:25.011Z,2.28
2022-10-11T13:00:52.043Z,1.58
2022-10-11T13:03:50.905Z,1.85
2022-10-11T13:06:38.811Z,1.98
2022-10-11T13:09:48.774Z,2.25
2022-10-11T13:12:25.333Z,1.70
2022-10-11T13:15:08.516Z,2.15
2022-10-11T13:17:39.044Z,2.25
2022-10-11T13:20:30.539Z,2.22
2022-10-11T13:22:58.605Z,1.90
2022-10-11T13:25:37.988Z,3.13
2022-10-11T13:28:09.785Z,1.85
2022-10-11T13:30:42.394Z,2.38
2022-10-11T13:33:21.411Z,2.22
2022-10-11T13:35:49.461Z,2.42
2022-10-11T13:38:43.160Z,1.92
2022-10-11T13:41:10.773Z,2.08
2022-10-11T13:43:38.721Z,1.92
2022-10-11T13:46:07.175Z,1.70
2022-10-11T13:48:41.065Z,2.15
2022-10-11T13:51:38.364Z,2.20
2022-10-11T13:54:13.534Z,3.35
2022-10-11T13:56:49.808Z,2.53
2022-10-11T13:59:23.986Z,1.75
2022-10-11T14:02:04.487Z,2.63
2022-10-11T14:04:40.909Z,2.50
2022-10-11T14:07:35.751Z,2.40
2022-10-11T14:10:05.634Z,2.10
2022-10-11T14:12:39.733Z,2.67
2022-10-11T14:15:23.737Z,2.33
2022-10-11T14:17:51.548Z,2.28
2022-10-11T14:20:33.738Z,3.22
2022-10-11T14:25:33.353Z,2.53
2022-10-11T14:28:00.723Z,2.17
2022-10-11T14:30:28.589Z,1.98
2022-10-11T14:32:59.641Z,2.38
2022-10-11T14:35:34.482Z,1.92
2022-10-11T14:38:01.608Z,2.13
2022-10-11T14:40:31.871Z,2.40
2022-10-11T14:42:59.035Z,2.50
2022-10-11T14:45:26.286Z,2.72
2022-10-11T14:47:53.581Z,2.10
2022-10-11T14:50:51.860Z,2.92
2022-10-11T14:53:19.238Z,2.60
2022-10-11T14:55:48.441Z,2.08
2022-10-11T14:58:17.386Z,1.95
2022-10-11T15:00:45.691Z,2.38
2022-10-11T15:03:14.878Z,2.33
2022-10-11T15:05:44.218Z,2.78
2022-10-11T15:08:14.892Z,2.53
2022-10-11T15:10:42.220Z,2.30
2022-10-11T15:13:11.812Z,2.70
2022-10-11T15:15:41.426Z,2.22
2022-10-11T15:18:13.455Z,2.47
2022-10-11T15:20:46.056Z,2.47
2022-10-11T15:23:13.925Z,2.50
2022-10-11T15:25:42.638Z,2.25
2022-10-11T15:28:30.117Z,2.30
2022-10-11T15:30:57.758Z,2.25
2022-10-11T15:33:28.320Z,2.60
2022-10-11T15:35:55.562Z,2.13
2022-10-11T15:38:25.896Z,2.22
2022-10-11T15:40:54.077Z,2.28
2022-10-11T15:43:24.776Z,2.38
2022-10-11T15:45:52.681Z,2.15
2022-10-11T15:48:22.756Z,2.50
2022-10-11T15:50:50.978Z,3.35
2022-10-11T15:53:23.336Z,3.03
2022-10-11T15:55:55.738Z,2.47
2022-10-11T15:58:27.860Z,2.80
2022-10-11T16:03:29.614Z,3.08
2022-10-11T16:06:04.933Z,2.90
2022-10-11T16:08:36.110Z,4.10
2022-10-11T16:11:05.114Z,3.75
2022-10-11T16:13:33.027Z,4.00
2022-10-11T16:16:11.288Z,5.28
2022-10-11T16:18:40.204Z,6.80
2022-10-11T16:21:10.647Z,6.18
2022-10-11T16:23:38.599Z,5.78
2022-10-11T16:26:10.174Z,5.75
2022-10-11T16:28:40.177Z,6.10
2022-10-11T16:31:18.326Z,6.38
2022-10-11T16:33:46.238Z,6.25
2022-10-11T16:36:36.624Z,6.53
2022-10-11T16:39:15.758Z,6.88
2022-10-11T16:41:46.278Z,8.13
2022-10-11T16:44:25.259Z,11.18
2022-10-11T16:46:52.670Z,10.65
2022-10-11T16:49:24.222Z,10.50
2022-10-11T16:51:59.006Z,8.90
2022-10-11T16:54:30.599Z,9.70
2022-10-11T16:56:59.598Z,9.52
2022-10-11T16:59:27.170Z,9.65
2022-10-11T17:01:55.160Z,9.73
2022-10-11T17:04:22.416Z,9.85
2022-10-11T17:06:49.859Z,10.52
2022-10-11T17:09:19.454Z,12.27
2022-10-11T17:11:46.588Z,12.57
2022-10-11T17:14:14.239Z,11.88
2022-10-11T17:16:41.450Z,13.38
2022-10-11T17:19:15.064Z,13.80
2022-10-11T17:21:44.730Z,13.18
2022-10-11T17:24:11.870Z,17.35
2022-10-11T17:26:39.293Z,17.85
2022-10-11T17:29:06.411Z,16.13
2022-10-11T17:31:33.538Z,16.88
2022-10-11T17:34:01.430Z,17.48
2022-10-11T17:36:36.265Z,17.85
2022-10-11T17:39:08.798Z,17.80
2022-10-11T17:41:36.663Z,18.40
2022-10-11T17:44:06.638Z,18.02
2022-10-11T17:46:34.247Z,17.23
2022-10-11T17:49:07.650Z,17.50
2022-10-11T17:51:36.952Z,18.52
2022-10-11T17:54:06.165Z,20.15
2022-10-11T17:56:37.657Z,20.80
2022-10-11T17:59:05.692Z,19.70
2022-10-11T18:01:32.884Z,20.70
2022-10-11T18:04:04.664Z,19.92
2022-10-11T18:06:38.515Z,21.02
2022-10-11T18:09:05.878Z,22.17
2022-10-11T18:11:33.574Z,21.27
2022-10-11T18:14:00.999Z,21.02
2022-10-11T18:16:30.536Z,21.65
2022-10-11T18:18:58.988Z,22.30
2022-10-11T18:21:34.352Z,22.80
2022-10-11T18:24:11.003Z,22.55
2022-10-11T18:26:38.585Z,20.92
2022-10-11T18:29:11.005Z,22.55
2022-10-11T18:31:41.295Z,23.02
2022-10-11T18:34:10.942Z,22.58
2022-10-11T18:36:39.088Z,23.33
2022-10-11T18:39:09.273Z,22.45
2022-10-11T18:41:39.414Z,22.10
2022-10-11T18:44:09.156Z,21.75
2022-10-11T18:46:38.672Z,22.58
2022-10-11T18:49:08.718Z,22.00
2022-10-11T18:51:39.444Z,22.70
2022-10-11T18:54:09.107Z,22.05
2022-10-11T18:56:37.188Z,21.63
2022-10-11T18:59:05.436Z,24.23
2022-10-11T19:01:39.634Z,22.00
2022-10-11T19:04:09.434Z,22.30
2022-10-11T19:06:43.406Z,22.63
2022-10-11T19:09:17.783Z,23.15
2022-10-11T19:11:49.524Z,24.23
2022-10-11T19:14:25.742Z,23.25
2022-10-11T19:16:53.926Z,23.05
2022-10-11T19:19:26.175Z,24.23
2022-10-11T19:24:24.320Z,24.77
2022-10-11T19:26:53.168Z,25.02
2022-10-11T19:29:24.179Z,25.58
2022-10-11T19:31:54.888Z,25.73
2022-10-11T19:34:28.710Z,25.63
2022-10-11T19:36:56.890Z,26.88
2022-10-11T19:39:25.609Z,27.70
2022-10-11T19:41:52.994Z,26.75
2022-10-11T19:44:20.483Z,27.40
2022-10-11T19:46:52.438Z,27.08
2022-10-11T19:49:25.045Z,28.92
2022-10-11T19:51:53.987Z,28.60
2022-10-11T19:54:21.179Z,29.67
2022-10-11T19:56:48.824Z,29.35
2022-10-11T19:59:16.814Z,27.90
2022-10-11T20:01:49.410Z,31.10
2022-10-11T20:04:47.135Z,30.52
2022-10-11T20:07:06.871Z,30.50
2022-10-11T20:09:34.055Z,29.95
2022-10-11T20:12:03.548Z,29.25
2022-10-11T20:14:30.671Z,28.45
2022-10-11T20:16:57.897Z,28.95
2022-10-11T20:19:31.120Z,30.30
2022-10-11T20:22:00.193Z,30.60
2022-10-11T20:24:32.450Z,29.88
2022-10-11T20:27:04.688Z,29.08
2022-10-11T20:29:31.905Z,21.58
2022-10-11T20:31:59.120Z,28.75
2022-10-11T20:34:27.696Z,29.85
2022-10-11T20:36:54.933Z,30.48
2022-10-11T20:39:22.109Z,29.60
2022-10-11T20:41:49.195Z,29.15
2022-10-11T20:44:18.698Z,27.63
2022-10-11T20:46:48.365Z,29.35
2022-10-11T20:49:15.739Z,29.60
2022-10-11T20:51:42.923Z,29.80
2022-10-11T20:54:11.301Z,28.92
2022-10-11T20:56:39.270Z,28.83
2022-10-11T20:59:07.010Z,27.55
2022-10-11T21:04:23.390Z,31.20
2022-10-11T21:06:50.531Z,29.05
2022-10-11T21:09:17.979Z,29.38
2022-10-11T21:11:46.016Z,31.38
2022-10-11T21:14:13.253Z,30.70
2022-10-11T21:16:40.431Z,31.83
2022-10-11T21:19:07.659Z,30.85
2022-10-11T21:21:35.051Z,31.40
2022-10-11T21:24:05.593Z,34.15
2022-10-11T21:26:32.963Z,30.25
2022-10-11T21:29:00.191Z,31.45
2022-10-11T21:31:34.250Z,30.83
2022-10-11T21:34:05.144Z,30.92
2022-10-11T21:36:32.311Z,30.88
2022-10-11T21:38:59.484Z,30.23
2022-10-11T21:41:30.149Z,30.63
2022-10-11T21:43:58.165Z,30.10
2022-10-11T21:46:54.239Z,30.10
2022-10-11T21:49:17.648Z,30.23
2022-10-11T21:51:45.521Z,29.48
2022-10-11T21:54:12.726Z,30.30
2022-10-11T21:56:39.966Z,26.73
2022-10-11T21:59:11.089Z,25.70
2022-10-11T22:01:40.437Z,24.30
2022-10-11T22:04:08.081Z,23.90
2022-10-11T22:06:36.180Z,20.95
2022-10-11T22:09:04.558Z,22.83
2022-10-11T22:11:32.226Z,22.90
2022-10-11T22:13:59.406Z,25.80
2022-10-11T22:16:28.949Z,23.85
2022-10-11T22:18:56.176Z,24.45
2022-10-11T22:21:24.032Z,25.48
2022-10-11T22:23:53.657Z,24.98
2022-10-11T22:26:25.748Z,23.10
2022-10-11T22:28:53.560Z,23.35
2022-10-11T22:31:21.516Z,18.00
2022-10-11T22:33:52.754Z,20.38
2022-10-11T22:36:20.005Z,20.83
2022-10-11T22:38:47.562Z,21.63
2022-10-11T22:41:14.684Z,21.23
2022-10-11T22:43:41.879Z,21.30
2022-10-11T22:46:09.862Z,20.25
2022-10-11T22:48:37.424Z,20.27
2022-10-11T22:51:06.919Z,20.17
2022-10-11T22:53:34.634Z,21.08
2022-10-11T22:56:04.257Z,20.77
2022-10-11T22:58:31.508Z,21.77
2022-10-11T23:01:05.621Z,20.90
2022-10-11T23:03:32.857Z,22.02
2022-10-11T23:06:00.135Z,21.25
2022-10-11T23:08:27.330Z,22.05
2022-10-11T23:10:54.469Z,20.88
2022-10-11T23:13:21.706Z,18.95
2022-10-11T23:15:48.813Z,20.85
2022-10-11T23:18:16.970Z,18.67
2022-10-11T23:20:44.740Z,16.90
2022-10-11T23:23:11.878Z,17.85
2022-10-11T23:25:39.689Z,16.70
2022-10-11T23:28:06.798Z,17.85
2022-10-11T23:30:35.303Z,16.75
2022-10-11T23:33:03.494Z,15.95
2022-10-11T23:35:30.674Z,16.50
2022-10-11T23:37:57.721Z,16.80
2022-10-11T23:40:24.876Z,16.73
2022-10-11T23:42:51.960Z,16.63
2022-10-11T23:45:19.089Z,16.70
2022-10-11T23:47:46.147Z,15.95
2022-10-11T23:50:13.266Z,16.33
2022-10-11T23:52:42.749Z,16.25
2022-10-11T23:55:09.976Z,16.38
2022-10-11T23:57:37.535Z,16.58
